EGNS

Isle of Man Airport

Castletown, Isle of Man
TAF EGNS 180800Z 1809/1818 VRB05KT 9999 FEW020
Issued Valid From Valid To
Oct-18 @ 08:00 UTC
(3 hours ago)
Oct-18 @ 09:00 UTC
(2 hours ago)
Oct-18 @ 18:00 UTC
(in 7 hours)
Oct-18 @ 09:00 to Oct-18 @ 18:00
TAF EGNS 180800Z 1809/1818 VRB05KT 9999 FEW020
Wind Visibility Clouds
Variable at 5 knots 10,000+ meters
  • Few at 2,000' AGL
TAF EGNS 180800Z 1809/1818 VRB05KT 9999 FEW020
Issued Oct-18 @ 08:00 UTC
(3 hours ago)
Valid From Oct-18 @ 09:00 UTC
(2 hours ago)
Valid To Oct-18 @ 18:00 UTC
(in 7 hours)
Oct-18 @ 09:00 - Oct-18 @ 18:00
Wind Visibility
Variable at 5 knots 10,000+ meters
Clouds
  • Few at 2,000' AGL